sensor_id;sensor_type;location;lat;lon;timestamp;pressure;altitude;pressure_sealevel;temperature;humidity
77939;BME280;67136;47.546;21.630;2023-01-28T00:02:37;100105.00;;;0.17;93.38
77939;BME280;67136;47.546;21.630;2023-01-28T00:05:40;100104.81;;;0.21;93.17
77939;BME280;67136;47.546;21.630;2023-01-28T00:08:43;100106.59;;;0.19;93.27
77939;BME280;67136;47.546;21.630;2023-01-28T00:11:46;100106.59;;;0.19;93.30
77939;BME280;67136;47.546;21.630;2023-01-28T00:14:48;100108.31;;;0.19;93.51
77939;BME280;67136;47.546;21.630;2023-01-28T00:17:51;100105.81;;;0.17;93.60
77939;BME280;67136;47.546;21.630;2023-01-28T00:20:59;100112.59;;;0.20;93.37
77939;BME280;67136;47.546;21.630;2023-01-28T00:24:03;100112.66;;;0.18;93.08
77939;BME280;67136;47.546;21.630;2023-01-28T00:27:05;100117.88;;;0.17;93.21
77939;BME280;67136;47.546;21.630;2023-01-28T00:30:10;100114.44;;;0.16;93.25
77939;BME280;67136;47.546;21.630;2023-01-28T00:33:12;100118.59;;;0.19;93.20
77939;BME280;67136;47.546;21.630;2023-01-28T00:36:16;100113.34;;;0.22;92.97
77939;BME280;67136;47.546;21.630;2023-01-28T00:39:19;100119.25;;;0.24;92.70
77939;BME280;67136;47.546;21.630;2023-01-28T00:42:21;100127.09;;;0.21;92.94
77939;BME280;67136;47.546;21.630;2023-01-28T00:45:24;100130.44;;;0.23;92.64
77939;BME280;67136;47.546;21.630;2023-01-28T00:48:28;100136.34;;;0.25;92.58
77939;BME280;67136;47.546;21.630;2023-01-28T00:51:30;100131.28;;;0.23;92.58
77939;BME280;67136;47.546;21.630;2023-01-28T00:54:33;100128.66;;;0.25;92.43
77939;BME280;67136;47.546;21.630;2023-01-28T00:57:37;100127.81;;;0.24;92.22
77939;BME280;67136;47.546;21.630;2023-01-28T01:00:40;100127.66;;;0.27;91.86
77939;BME280;67136;47.546;21.630;2023-01-28T01:03:43;100125.88;;;0.29;92.11
77939;BME280;67136;47.546;21.630;2023-01-28T01:06:46;100125.78;;;0.31;92.24
77939;BME280;67136;47.546;21.630;2023-01-28T01:09:48;100130.12;;;0.30;92.23
77939;BME280;67136;47.546;21.630;2023-01-28T01:12:51;100128.22;;;0.34;91.70
77939;BME280;67136;47.546;21.630;2023-01-28T01:16:14;100129.06;;;0.34;91.85
77939;BME280;67136;47.546;21.630;2023-01-28T01:19:22;100131.84;;;0.30;91.70
77939;BME280;67136;47.546;21.630;2023-01-28T01:22:25;100134.34;;;0.31;91.86
77939;BME280;67136;47.546;21.630;2023-01-28T01:25:27;100130.06;;;0.32;91.80
77939;BME280;67136;47.546;21.630;2023-01-28T01:28:30;100133.50;;;0.31;91.62
77939;BME280;67136;47.546;21.630;2023-01-28T01:31:33;100130.75;;;0.35;90.98
77939;BME280;67136;47.546;21.630;2023-01-28T01:34:35;100124.63;;;0.38;91.02
77939;BME280;67136;47.546;21.630;2023-01-28T01:37:38;100132.22;;;0.41;90.58
77939;BME280;67136;47.546;21.630;2023-01-28T01:40:41;100136.72;;;0.36;91.05
77939;BME280;67136;47.546;21.630;2023-01-28T01:43:50;100127.28;;;0.36;90.83
77939;BME280;67136;47.546;21.630;2023-01-28T01:46:53;100129.78;;;0.38;90.65
77939;BME280;67136;47.546;21.630;2023-01-28T01:49:56;100128.13;;;0.37;90.64
77939;BME280;67136;47.546;21.630;2023-01-28T01:53:06;100129.72;;;0.39;90.59
77939;BME280;67136;47.546;21.630;2023-01-28T01:56:13;100122.97;;;0.37;90.53
77939;BME280;67136;47.546;21.630;2023-01-28T01:59:22;100127.28;;;0.36;90.35
77939;BME280;67136;47.546;21.630;2023-01-28T02:02:27;100127.75;;;0.44;90.95
77939;BME280;67136;47.546;21.630;2023-01-28T02:05:30;100127.06;;;0.41;90.12
77939;BME280;67136;47.546;21.630;2023-01-28T02:08:32;100128.75;;;0.42;90.32
77939;BME280;67136;47.546;21.630;2023-01-28T02:11:35;100132.13;;;0.42;90.23
77939;BME280;67136;47.546;21.630;2023-01-28T02:14:41;100128.81;;;0.40;90.13
77939;BME280;67136;47.546;21.630;2023-01-28T02:17:46;100134.78;;;0.41;89.86
77939;BME280;67136;47.546;21.630;2023-01-28T02:28:08;100127.00;;;0.42;89.79
77939;BME280;67136;47.546;21.630;2023-01-28T02:31:18;100136.47;;;0.42;89.89
77939;BME280;67136;47.546;21.630;2023-01-28T02:34:33;100128.84;;;0.39;89.96
77939;BME280;67136;47.546;21.630;2023-01-28T02:37:45;100122.84;;;0.40;89.88
77939;BME280;67136;47.546;21.630;2023-01-28T02:40:52;100122.00;;;0.39;90.16
77939;BME280;67136;47.546;21.630;2023-01-28T02:44:07;100125.41;;;0.40;90.38
77939;BME280;67136;47.546;21.630;2023-01-28T02:47:11;100123.84;;;0.36;90.31
77939;BME280;67136;47.546;21.630;2023-01-28T02:50:43;100133.25;;;0.37;90.39
77939;BME280;67136;47.546;21.630;2023-01-28T02:53:56;100132.28;;;0.39;90.31
77939;BME280;67136;47.546;21.630;2023-01-28T03:00:23;100130.75;;;0.35;90.32
77939;BME280;67136;47.546;21.630;2023-01-28T03:06:48;100126.56;;;0.33;90.54
77939;BME280;67136;47.546;21.630;2023-01-28T03:09:53;100136.84;;;0.33;90.83
77939;BME280;67136;47.546;21.630;2023-01-28T03:13:00;100127.97;;;0.40;90.69
77939;BME280;67136;47.546;21.630;2023-01-28T03:16:21;100139.81;;;0.44;90.06
77939;BME280;67136;47.546;21.630;2023-01-28T03:19:43;100139.03;;;0.42;90.15
77939;BME280;67136;47.546;21.630;2023-01-28T03:23:10;100143.41;;;0.40;90.52
77939;BME280;67136;47.546;21.630;2023-01-28T03:26:41;100147.00;;;0.36;90.60
77939;BME280;67136;47.546;21.630;2023-01-28T03:30:14;100143.53;;;0.37;90.70
77939;BME280;67136;47.546;21.630;2023-01-28T03:33:38;100142.63;;;0.38;90.63
77939;BME280;67136;47.546;21.630;2023-01-28T03:37:00;100138.06;;;0.44;90.55
77939;BME280;67136;47.546;21.630;2023-01-28T03:40:06;100136.47;;;0.42;90.56
77939;BME280;67136;47.546;21.630;2023-01-28T03:43:09;100145.97;;;0.40;90.50
77939;BME280;67136;47.546;21.630;2023-01-28T03:46:12;100140.91;;;0.38;90.55
77939;BME280;67136;47.546;21.630;2023-01-28T03:49:15;100135.94;;;0.34;90.50
77939;BME280;67136;47.546;21.630;2023-01-28T03:52:21;100144.56;;;0.33;91.09
77939;BME280;67136;47.546;21.630;2023-01-28T03:55:24;100144.56;;;0.33;90.94
77939;BME280;67136;47.546;21.630;2023-01-28T03:58:27;100147.22;;;0.31;91.03
77939;BME280;67136;47.546;21.630;2023-01-28T04:01:48;100149.91;;;0.28;90.94
77939;BME280;67136;47.546;21.630;2023-01-28T04:04:52;100144.94;;;0.24;91.33
77939;BME280;67136;47.546;21.630;2023-01-28T04:07:55;100146.00;;;0.20;91.23
77939;BME280;67136;47.546;21.630;2023-01-28T04:11:01;100143.56;;;0.17;91.56
77939;BME280;67136;47.546;21.630;2023-01-28T04:14:17;100146.25;;;0.14;91.33
77939;BME280;67136;47.546;21.630;2023-01-28T04:17:21;100146.25;;;0.14;91.45
77939;BME280;67136;47.546;21.630;2023-01-28T04:20:24;100154.88;;;0.13;91.35
77939;BME280;67136;47.546;21.630;2023-01-28T04:23:28;100155.78;;;0.12;91.55
77939;BME280;67136;47.546;21.630;2023-01-28T04:26:34;100159.09;;;0.14;91.33
77939;BME280;67136;47.546;21.630;2023-01-28T04:29:37;100154.88;;;0.13;91.27
77939;BME280;67136;47.546;21.630;2023-01-28T04:32:41;100159.88;;;0.16;91.25
77939;BME280;67136;47.546;21.630;2023-01-28T04:35:44;100163.09;;;0.21;91.06
77939;BME280;67136;47.546;21.630;2023-01-28T04:38:47;100160.38;;;0.24;90.86
77939;BME280;67136;47.546;21.630;2023-01-28T04:41:51;100162.84;;;0.27;90.52
77939;BME280;67136;47.546;21.630;2023-01-28T04:44:54;100165.41;;;0.27;90.56
77939;BME280;67136;47.546;21.630;2023-01-28T04:47:56;100172.13;;;0.29;90.20
77939;BME280;67136;47.546;21.630;2023-01-28T04:50:59;100166.94;;;0.31;90.23
77939;BME280;67136;47.546;21.630;2023-01-28T04:54:04;100170.34;;;0.31;90.18
77939;BME280;67136;47.546;21.630;2023-01-28T04:57:06;100173.69;;;0.33;89.98
77939;BME280;67136;47.546;21.630;2023-01-28T05:00:10;100170.28;;;0.33;90.06
77939;BME280;67136;47.546;21.630;2023-01-28T05:03:12;100180.56;;;0.33;89.98
77939;BME280;67136;47.546;21.630;2023-01-28T05:06:15;100171.19;;;0.32;89.68
77939;BME280;67136;47.546;21.630;2023-01-28T05:09:19;100172.72;;;0.36;89.88
77939;BME280;67136;47.546;21.630;2023-01-28T05:12:23;100177.84;;;0.36;89.49
77939;BME280;67136;47.546;21.630;2023-01-28T05:15:25;100178.75;;;0.35;89.82
77939;BME280;67136;47.546;21.630;2023-01-28T05:18:28;100183.78;;;0.38;89.66
77939;BME280;67136;47.546;21.630;2023-01-28T05:21:32;100186.84;;;0.46;89.13
77939;BME280;67136;47.546;21.630;2023-01-28T05:24:35;100187.62;;;0.48;89.13
77939;BME280;67136;47.546;21.630;2023-01-28T05:27:37;100199.84;;;0.43;89.25
77939;BME280;67136;47.546;21.630;2023-01-28T05:30:40;100183.47;;;0.45;89.10
77939;BME280;67136;47.546;21.630;2023-01-28T05:33:43;100187.91;;;0.42;89.32
77939;BME280;67136;47.546;21.630;2023-01-28T05:36:46;100188.91;;;0.38;89.16
77939;BME280;67136;47.546;21.630;2023-01-28T05:39:50;100194.13;;;0.36;89.79
77939;BME280;67136;47.546;21.630;2023-01-28T05:42:53;100192.06;;;0.44;89.69
77939;BME280;67136;47.546;21.630;2023-01-28T05:45:56;100193.84;;;0.42;89.49
77939;BME280;67136;47.546;21.630;2023-01-28T05:49:01;100198.19;;;0.42;89.40
77939;BME280;67136;47.546;21.630;2023-01-28T05:52:05;100194.69;;;0.43;89.11
77939;BME280;67136;47.546;21.630;2023-01-28T05:55:09;100198.19;;;0.42;89.25
77939;BME280;67136;47.546;21.630;2023-01-28T05:58:12;100198.34;;;0.37;89.34
77939;BME280;67136;47.546;21.630;2023-01-28T06:01:14;100205.12;;;0.40;89.21
77939;BME280;67136;47.546;21.630;2023-01-28T06:04:19;100208.47;;;0.42;89.42
77939;BME280;67136;47.546;21.630;2023-01-28T06:07:22;100207.75;;;0.38;89.38
77939;BME280;67136;47.546;21.630;2023-01-28T06:10:25;100209.47;;;0.38;89.15
77939;BME280;67136;47.546;21.630;2023-01-28T06:13:28;100217.06;;;0.41;89.28
77939;BME280;67136;47.546;21.630;2023-01-28T06:16:32;100227.47;;;0.38;89.48
77939;BME280;67136;47.546;21.630;2023-01-28T06:19:37;100225.75;;;0.38;89.56
77939;BME280;67136;47.546;21.630;2023-01-28T06:22:40;100226.47;;;0.42;89.28
77939;BME280;67136;47.546;21.630;2023-01-28T06:25:42;100220.47;;;0.41;89.29
77939;BME280;67136;47.546;21.630;2023-01-28T06:28:45;100223.06;;;0.41;89.34
77939;BME280;67136;47.546;21.630;2023-01-28T06:31:48;100237.53;;;0.44;89.21
77939;BME280;67136;47.546;21.630;2023-01-28T06:34:52;100249.47;;;0.45;88.91
77939;BME280;67136;47.546;21.630;2023-01-28T06:37:55;100251.13;;;0.46;88.87
77939;BME280;67136;47.546;21.630;2023-01-28T06:40:58;100255.41;;;0.47;88.80
77939;BME280;67136;47.546;21.630;2023-01-28T06:44:00;100255.41;;;0.47;88.80
77939;BME280;67136;47.546;21.630;2023-01-28T06:47:04;100262.97;;;0.50;88.57
77939;BME280;67136;47.546;21.630;2023-01-28T06:50:07;100267.22;;;0.51;88.96
77939;BME280;67136;47.546;21.630;2023-01-28T06:53:10;100262.84;;;0.53;88.52
77939;BME280;67136;47.546;21.630;2023-01-28T06:56:12;100262.84;;;0.53;88.60
77939;BME280;67136;47.546;21.630;2023-01-28T06:59:15;100272.28;;;0.52;88.17
77939;BME280;67136;47.546;21.630;2023-01-28T07:02:18;100279.81;;;0.57;88.29
77939;BME280;67136;47.546;21.630;2023-01-28T07:05:21;100280.59;;;0.59;88.02
77939;BME280;67136;47.546;21.630;2023-01-28T07:08:24;100277.13;;;0.60;87.79
77939;BME280;67136;47.546;21.630;2023-01-28T07:11:26;100283.81;;;0.64;87.72
77939;BME280;67136;47.546;21.630;2023-01-28T07:14:30;100286.25;;;0.67;87.34
77939;BME280;67136;47.546;21.630;2023-01-28T07:17:32;100288.75;;;0.68;87.17
77939;BME280;67136;47.546;21.630;2023-01-28T07:20:35;100285.13;;;0.72;87.56
77939;BME280;67136;47.546;21.630;2023-01-28T07:23:38;100277.37;;;0.74;87.17
77939;BME280;67136;47.546;21.630;2023-01-28T07:26:41;100281.63;;;0.75;87.02
77939;BME280;67136;47.546;21.630;2023-01-28T07:29:43;100289.19;;;0.78;86.63
77939;BME280;67136;47.546;21.630;2023-01-28T07:32:46;100286.62;;;0.78;86.69
77939;BME280;67136;47.546;21.630;2023-01-28T07:35:49;100290.75;;;0.82;85.88
77939;BME280;67136;47.546;21.630;2023-01-28T07:38:51;100290.47;;;0.88;85.94
77939;BME280;67136;47.546;21.630;2023-01-28T07:41:54;100293.81;;;0.90;85.54
77939;BME280;67136;47.546;21.630;2023-01-28T07:45:01;100296.31;;;0.91;86.06
77939;BME280;67136;47.546;21.630;2023-01-28T07:48:06;100299.69;;;0.93;85.81
77939;BME280;67136;47.546;21.630;2023-01-28T07:51:09;100298.69;;;0.96;85.71
77939;BME280;67136;47.546;21.630;2023-01-28T07:54:12;100303.72;;;0.99;85.19
77939;BME280;67136;47.546;21.630;2023-01-28T07:57:14;100308.66;;;1.03;84.74
77939;BME280;67136;47.546;21.630;2023-01-28T08:00:27;100307.75;;;1.04;84.63
77939;BME280;67136;47.546;21.630;2023-01-28T08:03:30;100310.78;;;1.14;85.17
77939;BME280;67136;47.546;21.630;2023-01-28T08:06:33;100304.56;;;1.18;84.49
77939;BME280;67136;47.546;21.630;2023-01-28T08:09:39;100319.78;;;1.24;84.68
77939;BME280;67136;47.546;21.630;2023-01-28T08:12:55;100318.72;;;1.28;84.07
77939;BME280;67136;47.546;21.630;2023-01-28T08:16:00;100316.78;;;1.33;83.66
77939;BME280;67136;47.546;21.630;2023-01-28T08:19:03;100315.75;;;1.37;83.04
77939;BME280;67136;47.546;21.630;2023-01-28T08:22:05;100325.75;;;1.43;82.74
77939;BME280;67136;47.546;21.630;2023-01-28T08:25:08;100332.59;;;1.44;83.08
77939;BME280;67136;47.546;21.630;2023-01-28T08:28:12;100324.87;;;1.44;82.47
77939;BME280;67136;47.546;21.630;2023-01-28T08:31:14;100327.44;;;1.44;81.83
77939;BME280;67136;47.546;21.630;2023-01-28T08:34:17;100333.31;;;1.48;82.50
77939;BME280;67136;47.546;21.630;2023-01-28T08:37:19;100328.91;;;1.50;82.24
77939;BME280;67136;47.546;21.630;2023-01-28T08:40:22;100327.16;;;1.50;82.51
77939;BME280;67136;47.546;21.630;2023-01-28T08:43:25;100335.53;;;1.55;81.79
77939;BME280;67136;47.546;21.630;2023-01-28T08:46:27;100330.38;;;1.55;81.96
77939;BME280;67136;47.546;21.630;2023-01-28T08:49:30;100325.78;;;1.62;81.89
77939;BME280;67136;47.546;21.630;2023-01-28T08:52:32;100330.75;;;1.66;81.30
77939;BME280;67136;47.546;21.630;2023-01-28T08:55:35;100335.13;;;1.64;81.25
77939;BME280;67136;47.546;21.630;2023-01-28T08:58:38;100339.97;;;1.70;80.59
77939;BME280;67136;47.546;21.630;2023-01-28T09:01:41;100340.53;;;1.77;80.15
77939;BME280;67136;47.546;21.630;2023-01-28T09:04:44;100343.03;;;1.78;80.01
77939;BME280;67136;47.546;21.630;2023-01-28T09:07:47;100351.28;;;1.86;80.32
77939;BME280;67136;47.546;21.630;2023-01-28T09:10:54;100356.97;;;1.93;79.98
77939;BME280;67136;47.546;21.630;2023-01-28T09:13:57;100364.34;;;2.00;79.01
77939;BME280;67136;47.546;21.630;2023-01-28T09:17:00;100356.63;;;2.00;79.23
77939;BME280;67136;47.546;21.630;2023-01-28T09:20:03;100355.44;;;2.07;78.66
77939;BME280;67136;47.546;21.630;2023-01-28T09:23:06;100362.19;;;2.10;78.43
77939;BME280;67136;47.546;21.630;2023-01-28T09:26:09;100350.97;;;2.11;79.13
77939;BME280;67136;47.546;21.630;2023-01-28T09:29:12;100356.97;;;2.11;78.43
77939;BME280;67136;47.546;21.630;2023-01-28T09:32:14;100357.84;;;2.10;78.87
77939;BME280;67136;47.546;21.630;2023-01-28T09:35:17;100355.00;;;2.16;79.09
77939;BME280;67136;47.546;21.630;2023-01-28T09:38:20;100356.50;;;2.20;78.86
77939;BME280;67136;47.546;21.630;2023-01-28T09:48:00;100357.47;;;2.36;78.21
77939;BME280;67136;47.546;21.630;2023-01-28T09:51:09;100350.62;;;2.35;77.58
77939;BME280;67136;47.546;21.630;2023-01-28T09:54:40;100350.34;;;2.41;77.33
77939;BME280;67136;47.546;21.630;2023-01-28T09:57:50;100343.81;;;2.51;76.92
77939;BME280;67136;47.546;21.630;2023-01-28T10:11:58;100354.91;;;2.88;76.13
77939;BME280;67136;47.546;21.630;2023-01-28T10:18:38;100347.75;;;2.93;75.14
77939;BME280;67136;47.546;21.630;2023-01-28T10:21:52;100338.28;;;2.93;74.44
77939;BME280;67136;47.546;21.630;2023-01-28T10:25:01;100347.16;;;3.05;74.71
77939;BME280;67136;47.546;21.630;2023-01-28T10:28:17;100343.81;;;3.03;73.95
77939;BME280;67136;47.546;21.630;2023-01-28T10:31:21;100343.59;;;3.07;74.48
77939;BME280;67136;47.546;21.630;2023-01-28T10:34:24;100338.34;;;3.09;74.29
77939;BME280;67136;47.546;21.630;2023-01-28T10:37:28;100334.66;;;3.13;73.91
77939;BME280;67136;47.546;21.630;2023-01-28T10:40:34;100342.28;;;3.16;74.18
77939;BME280;67136;47.546;21.630;2023-01-28T10:43:40;100339.38;;;3.22;74.20
77939;BME280;67136;47.546;21.630;2023-01-28T10:46:45;100344.06;;;3.31;73.58
77939;BME280;67136;47.546;21.630;2023-01-28T10:49:52;100342.69;;;3.41;73.50
77939;BME280;67136;47.546;21.630;2023-01-28T10:53:02;100347.72;;;3.59;73.27
77939;BME280;67136;47.546;21.630;2023-01-28T10:59:21;100349.72;;;3.70;72.38
77939;BME280;67136;47.546;21.630;2023-01-28T11:02:30;100349.53;;;3.73;72.45
77939;BME280;67136;47.546;21.630;2023-01-28T11:05:34;100342.81;;;3.86;72.76
77939;BME280;67136;47.546;21.630;2023-01-28T11:08:43;100342.97;;;3.83;71.93
77939;BME280;67136;47.546;21.630;2023-01-28T11:11:46;100355.41;;;3.92;71.79
77939;BME280;67136;47.546;21.630;2023-01-28T11:15:00;100346.75;;;3.93;71.46
77939;BME280;67136;47.546;21.630;2023-01-28T11:18:23;100352.81;;;3.92;72.31
77939;BME280;67136;47.546;21.630;2023-01-28T11:21:28;100347.81;;;3.89;71.48
77939;BME280;67136;47.546;21.630;2023-01-28T11:24:32;100344.16;;;3.93;71.95
77939;BME280;67136;47.546;21.630;2023-01-28T11:27:36;100358.16;;;3.89;71.92
77939;BME280;67136;47.546;21.630;2023-01-28T11:30:39;100354.97;;;3.84;71.48
77939;BME280;67136;47.546;21.630;2023-01-28T11:33:48;100350.97;;;3.78;71.75
77939;BME280;67136;47.546;21.630;2023-01-28T11:37:02;100350.47;;;3.88;71.99
77939;BME280;67136;47.546;21.630;2023-01-28T11:40:18;100345.47;;;3.69;70.02
77939;BME280;67136;47.546;21.630;2023-01-28T11:43:28;100351.66;;;3.82;71.91
77939;BME280;67136;47.546;21.630;2023-01-28T11:50:16;100352.63;;;3.95;71.30
77939;BME280;67136;47.546;21.630;2023-01-28T11:53:32;100350.78;;;3.81;70.68
77939;BME280;67136;47.546;21.630;2023-01-28T11:56:56;100352.78;;;3.76;70.55
77939;BME280;67136;47.546;21.630;2023-01-28T12:10:25;100344.63;;;3.68;70.90
77939;BME280;67136;47.546;21.630;2023-01-28T12:21:03;100347.47;;;3.64;71.12
77939;BME280;67136;47.546;21.630;2023-01-28T12:24:39;100352.13;;;3.57;70.72
77939;BME280;67136;47.546;21.630;2023-01-28T12:41:09;100352.81;;;3.61;70.86
77939;BME280;67136;47.546;21.630;2023-01-28T12:44:22;100353.62;;;3.61;71.45
77939;BME280;67136;47.546;21.630;2023-01-28T12:47:38;100354.12;;;3.68;71.73
77939;BME280;67136;47.546;21.630;2023-01-28T12:50:44;100361.66;;;3.72;71.51
77939;BME280;67136;47.546;21.630;2023-01-28T12:53:57;100359.16;;;3.71;70.88
77939;BME280;67136;47.546;21.630;2023-01-28T12:57:02;100362.16;;;3.79;70.74
77939;BME280;67136;47.546;21.630;2023-01-28T13:00:36;100358.97;;;3.74;70.84
77939;BME280;67136;47.546;21.630;2023-01-28T13:03:52;100364.16;;;3.74;70.93
77939;BME280;67136;47.546;21.630;2023-01-28T13:10:18;100370.22;;;3.73;70.51
77939;BME280;67136;47.546;21.630;2023-01-28T13:13:32;100368.31;;;3.61;70.61
77939;BME280;67136;47.546;21.630;2023-01-28T13:16:35;100368.22;;;3.62;71.12
77939;BME280;67136;47.546;21.630;2023-01-28T13:19:40;100369.03;;;3.63;70.54
77939;BME280;67136;47.546;21.630;2023-01-28T13:22:44;100366.78;;;3.57;70.62
77939;BME280;67136;47.546;21.630;2023-01-28T13:25:53;100374.16;;;3.64;70.67
77939;BME280;67136;47.546;21.630;2023-01-28T13:32:31;100372.81;;;3.73;70.75
77939;BME280;67136;47.546;21.630;2023-01-28T13:35:37;100374.16;;;3.80;70.76
77939;BME280;67136;47.546;21.630;2023-01-28T13:38:39;100380.16;;;3.80;71.14
77939;BME280;67136;47.546;21.630;2023-01-28T13:44:49;100381.00;;;3.81;71.50
77939;BME280;67136;47.546;21.630;2023-01-28T13:47:58;100383.91;;;3.75;71.93
77939;BME280;67136;47.546;21.630;2023-01-28T13:51:01;100385.81;;;3.71;71.92
77939;BME280;67136;47.546;21.630;2023-01-28T13:54:09;100392.97;;;3.66;72.02
77939;BME280;67136;47.546;21.630;2023-01-28T14:01:23;100392.09;;;3.67;72.59
77939;BME280;67136;47.546;21.630;2023-01-28T14:19:12;100401.16;;;3.59;73.22
77939;BME280;67136;47.546;21.630;2023-01-28T14:22:18;100409.09;;;3.56;73.13
77939;BME280;67136;47.546;21.630;2023-01-28T14:25:28;100409.97;;;3.55;73.50
77939;BME280;67136;47.546;21.630;2023-01-28T14:28:44;100416.06;;;3.54;73.69
77939;BME280;67136;47.546;21.630;2023-01-28T14:31:49;100418.81;;;3.51;73.58
77939;BME280;67136;47.546;21.630;2023-01-28T14:34:54;100417.75;;;3.38;73.29
77939;BME280;67136;47.546;21.630;2023-01-28T14:37:59;100423.94;;;3.35;73.63
77939;BME280;67136;47.546;21.630;2023-01-28T14:41:03;100426.87;;;3.28;73.53
77939;BME280;67136;47.546;21.630;2023-01-28T14:44:06;100422.97;;;3.21;73.59
77939;BME280;67136;47.546;21.630;2023-01-28T14:57:14;100437.63;;;3.03;74.23
77939;BME280;67136;47.546;21.630;2023-01-28T15:00:27;100444.06;;;2.95;74.51
77939;BME280;67136;47.546;21.630;2023-01-28T15:03:30;100448.62;;;2.90;74.86
77939;BME280;67136;47.546;21.630;2023-01-28T15:06:34;100453.16;;;2.85;74.67
77939;BME280;67136;47.546;21.630;2023-01-28T15:09:37;100457.50;;;2.84;74.48
77939;BME280;67136;47.546;21.630;2023-01-28T15:12:42;100456.78;;;2.81;75.04
77939;BME280;67136;47.546;21.630;2023-01-28T15:15:47;100455.28;;;2.77;74.98
77939;BME280;67136;47.546;21.630;2023-01-28T15:19:00;100467.44;;;2.75;75.08
77939;BME280;67136;47.546;21.630;2023-01-28T15:22:05;100472.75;;;2.72;75.34
77939;BME280;67136;47.546;21.630;2023-01-28T15:25:27;100479.56;;;2.73;75.28
77939;BME280;67136;47.546;21.630;2023-01-28T15:28:32;100484.03;;;2.69;74.93
77939;BME280;67136;47.546;21.630;2023-01-28T15:31:36;100487.69;;;2.65;74.86
77939;BME280;67136;47.546;21.630;2023-01-28T15:34:44;100498.16;;;2.62;75.35
77939;BME280;67136;47.546;21.630;2023-01-28T15:37:47;100490.34;;;2.64;74.46
77939;BME280;67136;47.546;21.630;2023-01-28T15:40:59;100495.50;;;2.64;74.88
77939;BME280;67136;47.546;21.630;2023-01-28T15:44:02;100502.47;;;2.62;74.79
77939;BME280;67136;47.546;21.630;2023-01-28T15:47:30;100512.03;;;2.60;75.03
77939;BME280;67136;47.546;21.630;2023-01-28T15:50:34;100509.59;;;2.57;74.54
77939;BME280;67136;47.546;21.630;2023-01-28T15:53:42;100516.44;;;2.58;74.72
77939;BME280;67136;47.546;21.630;2023-01-28T15:56:45;100510.44;;;2.57;74.77
77939;BME280;67136;47.546;21.630;2023-01-28T15:59:48;100524.94;;;2.60;74.39
77939;BME280;67136;47.546;21.630;2023-01-28T16:02:53;100522.44;;;2.58;74.65
77939;BME280;67136;47.546;21.630;2023-01-28T16:06:03;100524.31;;;2.54;74.22
77939;BME280;67136;47.546;21.630;2023-01-28T16:09:23;100525.22;;;2.53;74.00
77939;BME280;67136;47.546;21.630;2023-01-28T16:12:28;100527.84;;;2.52;73.39
77939;BME280;67136;47.546;21.630;2023-01-28T16:15:31;100530.78;;;2.63;73.06
77939;BME280;67136;47.546;21.630;2023-01-28T16:18:44;100537.84;;;2.60;72.19
77939;BME280;67136;47.546;21.630;2023-01-28T16:21:52;100542.53;;;2.51;72.79
77939;BME280;67136;47.546;21.630;2023-01-28T16:24:55;100534.63;;;2.54;72.41
77939;BME280;67136;47.546;21.630;2023-01-28T16:27:59;100542.44;;;2.53;72.21
77939;BME280;67136;47.546;21.630;2023-01-28T16:31:04;100544.63;;;2.43;72.40
77939;BME280;67136;47.546;21.630;2023-01-28T16:34:09;100543.06;;;2.39;73.07
77939;BME280;67136;47.546;21.630;2023-01-28T16:37:12;100545.72;;;2.38;73.04
77939;BME280;67136;47.546;21.630;2023-01-28T16:40:17;100548.44;;;2.35;72.71
77939;BME280;67136;47.546;21.630;2023-01-28T16:43:21;100550.47;;;2.28;72.81
77939;BME280;67136;47.546;21.630;2023-01-28T16:46:25;100539.44;;;2.25;73.08
77939;BME280;67136;47.546;21.630;2023-01-28T16:49:28;100548.78;;;2.27;73.02
77939;BME280;67136;47.546;21.630;2023-01-28T16:52:31;100557.56;;;2.23;72.76
77939;BME280;67136;47.546;21.630;2023-01-28T16:55:34;100560.91;;;2.25;72.97
77939;BME280;67136;47.546;21.630;2023-01-28T16:58:36;100555.03;;;2.22;72.82
77939;BME280;67136;47.546;21.630;2023-01-28T17:01:39;100562.97;;;2.17;73.31
77939;BME280;67136;47.546;21.630;2023-01-28T17:04:41;100568.34;;;2.13;73.67
77939;BME280;67136;47.546;21.630;2023-01-28T17:07:48;100562.41;;;2.11;73.60
77939;BME280;67136;47.546;21.630;2023-01-28T17:10:53;100565.06;;;2.09;73.94
77939;BME280;67136;47.546;21.630;2023-01-28T17:13:56;100562.81;;;2.02;73.85
77939;BME280;67136;47.546;21.630;2023-01-28T17:16:58;100564.56;;;2.01;73.84
77939;BME280;67136;47.546;21.630;2023-01-28T17:20:01;100563.66;;;2.02;73.14
77939;BME280;67136;47.546;21.630;2023-01-28T17:23:07;100571.31;;;2.04;73.01
77939;BME280;67136;47.546;21.630;2023-01-28T17:26:14;100572.25;;;2.03;73.23
77939;BME280;67136;47.546;21.630;2023-01-28T17:29:17;100568.94;;;1.99;73.14
77939;BME280;67136;47.546;21.630;2023-01-28T17:32:20;100586.28;;;1.96;73.31
77939;BME280;67136;47.546;21.630;2023-01-28T17:35:22;100583.63;;;1.97;73.34
77939;BME280;67136;47.546;21.630;2023-01-28T17:38:25;100579.25;;;1.99;72.98
77939;BME280;67136;47.546;21.630;2023-01-28T17:41:28;100589.81;;;1.93;73.25
77939;BME280;67136;47.546;21.630;2023-01-28T17:44:31;100585.66;;;1.91;73.89
77939;BME280;67136;47.546;21.630;2023-01-28T17:47:33;100596.81;;;1.91;73.78
77939;BME280;67136;47.546;21.630;2023-01-28T17:50:39;100591.75;;;1.88;73.71
77939;BME280;67136;47.546;21.630;2023-01-28T17:53:50;100591.19;;;1.82;73.18
77939;BME280;67136;47.546;21.630;2023-01-28T17:56:53;100587.00;;;1.79;73.63
77939;BME280;67136;47.546;21.630;2023-01-28T17:59:56;100596.59;;;1.76;74.10
77939;BME280;67136;47.546;21.630;2023-01-28T18:02:59;100591.69;;;1.70;74.03
77939;BME280;67136;47.546;21.630;2023-01-28T18:06:02;100597.69;;;1.70;73.87